Ponca City Regional Airport
KPNC : now visible

Airfield :











YOU CAN JOIN US ON...

 
LOGIN :

Register | Disclaimer

   EN    FR    IT 

 









Legend :    VFR   Marginal VFR   IFR   Intensive IFR   Very Intensive IFR
Visi :
Ceiling :
>= 8 km
>= 3000ft
5 to 8 km
1000 to 3000 ft
1500m to 5 km
500 to 1000 ft
800 to 1500m
200 to 500 ft
< 800m
< 200 ft
Symbols :   Thunderstorms  Fog  Heavy snow  Heavy precipitations  Wind > 20 kt






- Airport Elevation : 1008 ft


KPNC - Ponca City Regional

CURRENT METAR :
  • 021653Z AUTO 12012KT 10SM CLR 32/21 A2995 RMK AO2 SLP127 T03170211 TSNO

EXPIRED METARs :
  • 021553Z AUTO 11011KT 10SM FEW110 29/21 A2997 RMK AO2 SLP133 T02940211 TSNO
  • 021453Z AUTO 10007KT 10SM BKN110 28/21 A2997 RMK AO2 SLP135 T02830206 58006 TSNO
  • 020253Z AUTO 15011KT 10SM CLR 31/19 A2989 RMK AO2 SLP106 T03060194 55000 TSNO

TAF KPNC
Valid from the 02 at 12:00 until the 03 at 12:00 UTC


021120Z 0212/0312 14008KT P6SM SCT100
FM021500 16008G14KT P6SM SCT090
FM030600 11006KT P6SM OVC100
KZKC FIR / North America



MET'MAP, your aeronautical weather chart ! - Copyright ORBIFLY December 2007 - Disclaimer

ORBIFLY MET'MAP TEAM :

Programming & Development : Alexandra Zaïnal
Original concept : Baudouin d'Aumeries
Technical & hardware support : Manuel Goepfert
Assistance : Marc-Olivier Méhu




SOURCES & CREDITS :

   NOAA       Earth
Advisory